createdAt,value
2023-01-28T00:00:31.583Z,76.13
2023-01-28T00:03:22.881Z,76.51
2023-01-28T00:05:55.804Z,76.25
2023-01-28T00:08:27.424Z,76.44
2023-01-28T00:11:02.137Z,76.69
2023-01-28T00:13:33.861Z,76.29
2023-01-28T00:16:06.257Z,76.35
2023-01-28T00:18:38.089Z,76.45
2023-01-28T00:21:11.201Z,76.30
2023-01-28T00:23:43.140Z,76.36
2023-01-28T00:26:14.727Z,76.45
2023-01-28T00:28:45.945Z,76.56
2023-01-28T00:31:18.751Z,76.19
2023-01-28T00:33:51.572Z,76.20
2023-01-28T00:36:24.148Z,76.45
2023-01-28T00:38:56.144Z,76.22
2023-01-28T00:41:28.791Z,75.99
2023-01-28T00:44:00.220Z,76.35
2023-01-28T00:46:32.607Z,76.24
2023-01-28T00:49:04.454Z,76.16
2023-01-28T00:51:35.928Z,76.32
2023-01-28T00:54:07.409Z,76.27
2023-01-28T00:56:38.976Z,76.44
2023-01-28T00:59:10.513Z,76.32
2023-01-28T01:01:42.206Z,76.39
2023-01-28T01:04:13.453Z,76.24
2023-01-28T01:06:44.499Z,76.32
2023-01-28T01:09:15.603Z,76.32
2023-01-28T01:11:47.092Z,76.15
2023-01-28T01:14:18.540Z,76.41
2023-01-28T01:16:50.078Z,76.05
2023-01-28T01:19:21.452Z,76.45
2023-01-28T01:21:52.740Z,76.47
2023-01-28T01:24:24.015Z,76.60
2023-01-28T01:26:55.659Z,76.51
2023-01-28T01:29:27.123Z,76.41
2023-01-28T01:31:58.543Z,76.56
2023-01-28T01:34:29.754Z,76.34
2023-01-28T01:37:01.247Z,76.31
2023-01-28T01:39:32.739Z,76.60
2023-01-28T01:42:04.503Z,76.66
2023-01-28T01:45:04.950Z,76.91
2023-01-28T01:47:38.947Z,76.40
2023-01-28T01:50:12.663Z,76.81
2023-01-28T01:52:44.329Z,76.41
2023-01-28T01:55:16.710Z,76.45
2023-01-28T01:57:48.043Z,76.45
2023-01-28T02:00:20.073Z,76.64
2023-01-28T02:02:51.460Z,76.43
2023-01-28T02:05:23.521Z,76.61
2023-01-28T02:08:16.404Z,76.45
2023-01-28T02:10:47.880Z,76.49
2023-01-28T02:13:19.109Z,76.64
2023-01-28T02:15:50.496Z,76.49
2023-01-28T02:18:22.242Z,76.52
2023-01-28T02:21:06.356Z,76.67
2023-01-28T02:23:42.219Z,76.83
2023-01-28T02:26:20.476Z,76.67
2023-01-28T02:28:52.086Z,76.91
2023-01-28T02:31:25.460Z,76.98
2023-01-28T02:33:58.168Z,76.84
2023-01-28T02:36:31.920Z,76.61
2023-01-28T02:39:05.402Z,76.90
2023-01-28T02:41:38.179Z,77.32
2023-01-28T02:44:09.790Z,77.05
2023-01-28T02:46:58.680Z,76.80
2023-01-28T02:49:30.796Z,77.19
2023-01-28T02:52:05.784Z,76.88
2023-01-28T02:54:38.965Z,76.90
2023-01-28T02:57:13.912Z,77.16
2023-01-28T02:59:47.536Z,76.85
2023-01-28T03:02:20.553Z,76.81
2023-01-28T03:04:56.017Z,76.92
2023-01-28T03:07:27.684Z,77.19
2023-01-28T03:10:02.375Z,76.90
2023-01-28T03:12:52.135Z,76.71
2023-01-28T03:15:42.016Z,76.99
2023-01-28T03:18:30.975Z,76.89
2023-01-28T03:21:21.499Z,76.67
2023-01-28T03:24:13.334Z,76.93
2023-01-28T03:27:02.935Z,77.03
2023-01-28T03:29:51.845Z,76.79
2023-01-28T03:32:40.814Z,76.67
2023-01-28T03:35:30.030Z,76.89
2023-01-28T03:38:01.688Z,76.87
2023-01-28T03:40:33.188Z,77.15
2023-01-28T03:43:04.564Z,77.20
2023-01-28T03:45:37.465Z,77.05
2023-01-28T03:48:09.202Z,76.87
2023-01-28T03:50:40.809Z,76.99
2023-01-28T03:53:16.983Z,76.94
2023-01-28T03:55:48.868Z,76.97
2023-01-28T03:58:20.528Z,76.88
2023-01-28T04:00:52.631Z,76.83
2023-01-28T04:03:24.303Z,76.68
2023-01-28T04:06:01.150Z,76.85
2023-01-28T04:08:32.739Z,76.68
2023-01-28T04:11:15.876Z,76.35
2023-01-28T04:13:47.482Z,76.47
2023-01-28T04:16:20.557Z,76.53
2023-01-28T04:18:52.348Z,76.46
2023-01-28T04:21:23.666Z,76.59
2023-01-28T04:23:55.085Z,76.65
2023-01-28T04:26:26.578Z,76.65
2023-01-28T04:28:58.287Z,76.58
2023-01-28T04:31:30.437Z,76.32
2023-01-28T04:34:01.848Z,76.52
2023-01-28T04:36:33.276Z,76.62
2023-01-28T04:39:04.983Z,76.41
2023-01-28T04:41:36.606Z,76.19
2023-01-28T04:44:08.419Z,76.50
2023-01-28T04:46:39.685Z,76.27
2023-01-28T04:49:11.195Z,76.22
2023-01-28T04:51:43.025Z,76.61
2023-01-28T04:54:14.495Z,76.52
2023-01-28T04:56:45.885Z,76.65
2023-01-28T04:59:17.163Z,76.24
2023-01-28T05:01:48.432Z,76.32
2023-01-28T05:04:20.151Z,76.35
2023-01-28T05:06:52.721Z,76.35
2023-01-28T05:09:24.253Z,76.48
2023-01-28T05:11:55.717Z,76.81
2023-01-28T05:14:26.984Z,76.69
2023-01-28T05:16:58.632Z,76.76
2023-01-28T05:19:30.321Z,76.51
2023-01-28T05:22:01.939Z,76.50
2023-01-28T05:24:33.423Z,76.27
2023-01-28T05:27:04.915Z,76.55
2023-01-28T05:29:36.574Z,76.40
2023-01-28T05:32:08.315Z,76.47
2023-01-28T05:34:40.713Z,76.40
2023-01-28T05:37:12.137Z,76.34
2023-01-28T05:39:43.592Z,76.61
2023-01-28T05:42:15.874Z,76.42
2023-01-28T05:44:47.671Z,76.49
2023-01-28T05:47:19.157Z,76.38
2023-01-28T05:49:52.498Z,76.48
2023-01-28T05:52:23.893Z,76.19
2023-01-28T05:54:55.767Z,76.24
2023-01-28T05:57:27.445Z,76.33
2023-01-28T05:59:59.064Z,76.59
2023-01-28T06:02:30.384Z,76.49
2023-01-28T06:05:01.946Z,76.37
2023-01-28T06:07:33.375Z,76.24
2023-01-28T06:10:05.395Z,76.36
2023-01-28T06:12:37.011Z,76.33
2023-01-28T06:15:09.497Z,76.46
2023-01-28T06:17:41.052Z,76.56
2023-01-28T06:20:14.094Z,76.59
2023-01-28T06:22:45.905Z,76.62
2023-01-28T06:25:17.597Z,76.67
2023-01-28T06:27:48.905Z,76.48
2023-01-28T06:30:21.441Z,76.90
2023-01-28T06:32:56.760Z,76.65
2023-01-28T06:35:28.449Z,76.79
2023-01-28T06:38:00.156Z,76.74
2023-01-28T06:40:32.593Z,76.55
2023-01-28T06:43:04.019Z,76.47
2023-01-28T06:45:35.566Z,76.84
2023-01-28T06:48:08.885Z,76.77
2023-01-28T06:50:42.004Z,76.60
2023-01-28T06:53:13.747Z,76.85
2023-01-28T06:55:51.501Z,76.73
2023-01-28T06:58:28.415Z,76.85
2023-01-28T07:01:01.482Z,76.80
2023-01-28T07:03:33.122Z,76.79
2023-01-28T07:06:04.848Z,76.85
2023-01-28T07:08:37.933Z,76.83
2023-01-28T07:11:09.640Z,76.93
2023-01-28T07:13:41.178Z,76.88
2023-01-28T07:16:12.832Z,76.71
2023-01-28T07:18:46.376Z,76.70
2023-01-28T07:21:22.889Z,76.88
2023-01-28T07:23:59.939Z,76.77
2023-01-28T07:26:36.901Z,76.68
2023-01-28T07:29:12.684Z,76.73
2023-01-28T07:31:48.521Z,76.71
2023-01-28T07:34:19.962Z,76.69
2023-01-28T07:36:51.371Z,76.57
2023-01-28T07:39:22.956Z,76.71
2023-01-28T07:41:54.580Z,76.73
2023-01-28T07:44:26.732Z,76.87
2023-01-28T07:46:58.194Z,77.11
2023-01-28T07:49:30.351Z,76.58
2023-01-28T07:52:01.958Z,76.92
2023-01-28T07:54:33.743Z,76.87
2023-01-28T07:57:10.103Z,76.86
2023-01-28T07:59:41.449Z,77.13
2023-01-28T08:02:14.172Z,77.05
2023-01-28T08:04:45.889Z,76.88
2023-01-28T08:07:18.680Z,76.39
2023-01-28T08:09:50.016Z,77.13
2023-01-28T08:12:21.647Z,77.29
2023-01-28T08:14:53.269Z,77.02
2023-01-28T08:17:25.860Z,76.78
2023-01-28T08:19:57.415Z,76.97
2023-01-28T08:22:29.473Z,76.95
2023-01-28T08:25:01.119Z,76.81
2023-01-28T08:27:32.597Z,77.05
2023-01-28T08:30:04.254Z,77.07
2023-01-28T08:32:36.079Z,76.92
2023-01-28T08:35:08.497Z,77.29
2023-01-28T08:37:39.920Z,77.09
2023-01-28T08:40:12.741Z,77.24
2023-01-28T08:42:49.740Z,77.07
2023-01-28T08:45:22.623Z,77.21
2023-01-28T08:47:54.743Z,77.41
2023-01-28T08:50:26.438Z,77.41
2023-01-28T08:53:00.468Z,77.17
2023-01-28T08:55:32.167Z,77.23
2023-01-28T08:58:05.535Z,77.31
2023-01-28T09:00:37.051Z,77.15
2023-01-28T09:03:08.761Z,76.97
2023-01-28T09:05:40.355Z,77.22
2023-01-28T09:08:13.090Z,77.52
2023-01-28T09:10:44.743Z,77.37
2023-01-28T09:13:16.608Z,77.30
2023-01-28T09:15:47.934Z,77.40
2023-01-28T09:18:19.504Z,77.05
2023-01-28T09:20:51.021Z,77.01
2023-01-28T09:23:22.343Z,76.91
2023-01-28T09:25:53.498Z,76.84
2023-01-28T09:28:24.702Z,76.68
2023-01-28T09:30:57.423Z,77.26
2023-01-28T09:33:29.033Z,77.08
2023-01-28T09:36:03.706Z,77.13
2023-01-28T09:38:36.480Z,77.09
2023-01-28T09:41:12.938Z,76.98
2023-01-28T09:43:51.668Z,76.90
2023-01-28T09:46:26.783Z,76.86
2023-01-28T09:48:58.564Z,76.43
2023-01-28T09:51:32.539Z,76.76
2023-01-28T09:54:06.682Z,76.84
2023-01-28T09:56:40.813Z,76.91
2023-01-28T09:59:17.231Z,76.89
2023-01-28T10:01:48.548Z,76.67
2023-01-28T10:04:23.529Z,76.86
2023-01-28T10:07:00.210Z,76.90
2023-01-28T10:09:36.476Z,76.50
2023-01-28T10:12:13.788Z,76.81
2023-01-28T10:14:51.238Z,77.11
2023-01-28T10:17:23.674Z,76.82
2023-01-28T10:19:55.356Z,76.95
2023-01-28T10:22:28.494Z,76.82
2023-01-28T10:25:06.544Z,76.65
2023-01-28T10:27:38.105Z,76.56
2023-01-28T10:30:17.424Z,76.92
2023-01-28T10:32:51.164Z,76.90
2023-01-28T10:35:22.743Z,76.93
2023-01-28T10:37:54.251Z,76.76
2023-01-28T10:40:27.940Z,76.93
2023-01-28T10:42:59.760Z,76.56
2023-01-28T10:45:31.634Z,76.79
2023-01-28T10:48:03.770Z,76.86
2023-01-28T10:50:36.086Z,76.63
2023-01-28T10:53:07.608Z,76.60
2023-01-28T10:55:46.090Z,76.53
2023-01-28T10:58:18.563Z,76.72
2023-01-28T11:00:53.659Z,76.58
2023-01-28T11:03:27.397Z,76.82
2023-01-28T11:05:59.828Z,76.94
2023-01-28T11:08:31.621Z,76.99
2023-01-28T11:11:03.401Z,76.89
2023-01-28T11:13:35.039Z,77.05
2023-01-28T11:16:07.719Z,76.75
2023-01-28T11:18:40.357Z,77.14
2023-01-28T11:21:17.602Z,76.89
2023-01-28T11:23:51.392Z,77.04
2023-01-28T11:26:23.468Z,76.88
2023-01-28T11:28:55.124Z,76.98
2023-01-28T11:31:26.658Z,76.68
2023-01-28T11:33:58.422Z,77.04
2023-01-28T11:36:30.488Z,76.92
2023-01-28T11:39:03.064Z,76.69
2023-01-28T11:41:36.243Z,76.91
2023-01-28T11:44:11.934Z,76.81
2023-01-28T11:46:48.470Z,76.85
2023-01-28T11:49:22.072Z,77.07
2023-01-28T11:51:55.183Z,77.00
2023-01-28T11:54:29.607Z,76.99
2023-01-28T11:57:05.105Z,77.16
2023-01-28T11:59:40.708Z,77.06
2023-01-28T12:02:17.513Z,77.00
2023-01-28T12:04:52.438Z,76.73
2023-01-28T12:07:27.831Z,77.01
2023-01-28T12:10:00.503Z,77.09
2023-01-28T12:12:45.609Z,77.10
2023-01-28T12:15:32.874Z,77.12
2023-01-28T12:18:07.739Z,77.18
2023-01-28T12:20:41.331Z,76.96
2023-01-28T12:23:16.259Z,77.08
2023-01-28T12:25:51.346Z,76.88
2023-01-28T12:28:30.698Z,77.25
2023-01-28T12:31:13.362Z,76.91
2023-01-28T12:33:53.354Z,76.92
2023-01-28T12:36:29.047Z,76.71
2023-01-28T12:39:03.188Z,76.73
2023-01-28T12:41:36.043Z,77.04
2023-01-28T12:44:10.516Z,77.07
2023-01-28T12:46:43.191Z,77.27
2023-01-28T12:49:18.540Z,77.32
2023-01-28T12:51:51.883Z,77.14
2023-01-28T12:54:24.467Z,77.02
2023-01-28T12:56:56.531Z,76.96
2023-01-28T12:59:30.995Z,77.20
2023-01-28T13:02:13.533Z,77.13
2023-01-28T13:04:45.769Z,77.25
2023-01-28T13:07:17.651Z,76.92
2023-01-28T13:09:51.172Z,77.15
2023-01-28T13:12:22.771Z,77.07
2023-01-28T13:14:54.419Z,76.83
2023-01-28T13:17:29.056Z,76.78
2023-01-28T13:20:01.449Z,76.97
2023-01-28T13:22:34.241Z,77.00
2023-01-28T13:25:25.003Z,76.94
2023-01-28T13:27:57.366Z,77.24
2023-01-28T13:30:30.578Z,76.99
2023-01-28T13:33:02.491Z,77.16
2023-01-28T13:35:35.299Z,77.26
2023-01-28T13:38:10.933Z,77.44
2023-01-28T13:40:43.279Z,77.20
2023-01-28T13:43:28.665Z,77.35
2023-01-28T13:46:01.399Z,77.16
2023-01-28T13:48:34.013Z,76.98
2023-01-28T13:51:06.789Z,77.57
2023-01-28T13:53:42.094Z,77.29
2023-01-28T13:56:19.566Z,77.35
2023-01-28T13:59:19.786Z,76.95
2023-01-28T14:01:58.034Z,77.45
2023-01-28T14:04:39.850Z,77.37
2023-01-28T14:07:23.154Z,77.35
2023-01-28T14:09:58.491Z,77.31
2023-01-28T14:12:34.435Z,77.07
2023-01-28T14:15:22.773Z,77.24
2023-01-28T14:17:55.043Z,77.28
2023-01-28T14:20:27.575Z,77.36
2023-01-28T14:22:59.930Z,77.27
2023-01-28T14:25:38.496Z,77.26
2023-01-28T14:28:10.971Z,77.70
2023-01-28T14:30:43.589Z,77.52
2023-01-28T14:33:15.035Z,77.35
2023-01-28T14:35:47.648Z,77.47
2023-01-28T14:38:19.910Z,77.49
2023-01-28T14:40:52.082Z,77.46
2023-01-28T14:43:24.933Z,77.43
2023-01-28T14:46:02.544Z,77.34
2023-01-28T14:48:38.464Z,77.52
2023-01-28T14:51:13.658Z,77.51
2023-01-28T14:53:51.905Z,77.33
2023-01-28T14:56:26.231Z,77.30
2023-01-28T14:58:59.559Z,77.42
2023-01-28T15:01:31.926Z,77.60
2023-01-28T15:04:03.448Z,77.78
2023-01-28T15:06:37.963Z,77.48
2023-01-28T15:09:10.604Z,77.45
2023-01-28T15:11:43.630Z,77.52
2023-01-28T15:14:17.451Z,77.65
2023-01-28T15:16:50.303Z,77.58
2023-01-28T15:19:28.198Z,77.84
2023-01-28T15:22:00.596Z,77.23
2023-01-28T15:24:32.258Z,77.67
2023-01-28T15:27:03.819Z,77.67
2023-01-28T15:29:36.657Z,77.51
2023-01-28T15:32:08.517Z,77.33
2023-01-28T15:34:46.719Z,77.27
2023-01-28T15:37:19.047Z,77.30
2023-01-28T15:39:50.520Z,77.46
2023-01-28T15:42:22.680Z,77.61
2023-01-28T15:44:53.774Z,77.90
2023-01-28T15:47:25.205Z,77.76
2023-01-28T15:49:57.205Z,77.76
2023-01-28T15:52:32.279Z,77.52
2023-01-28T15:55:03.328Z,77.42
2023-01-28T15:57:34.846Z,77.60
2023-01-28T16:00:11.005Z,77.60
2023-01-28T16:02:46.519Z,77.49
2023-01-28T16:05:27.953Z,77.29
2023-01-28T16:07:59.938Z,77.86
2023-01-28T16:10:32.804Z,77.61
2023-01-28T16:13:05.982Z,77.58
2023-01-28T16:15:39.410Z,77.58
2023-01-28T16:18:16.164Z,77.50
2023-01-28T16:20:48.485Z,77.79
2023-01-28T16:23:29.129Z,77.85
2023-01-28T16:26:03.850Z,77.39
2023-01-28T16:28:34.982Z,77.75
2023-01-28T16:31:07.512Z,77.72
2023-01-28T16:33:39.125Z,77.68
2023-01-28T16:36:12.777Z,78.09
2023-01-28T16:38:43.850Z,77.85
2023-01-28T16:41:20.948Z,77.88
2023-01-28T16:43:51.844Z,77.39
2023-01-28T16:46:22.889Z,77.70
2023-01-28T16:48:54.207Z,77.61
2023-01-28T16:51:25.473Z,77.61
2023-01-28T16:53:57.308Z,77.71
2023-01-28T16:56:46.237Z,77.56
2023-01-28T16:59:17.992Z,77.66
2023-01-28T17:01:49.434Z,77.80
2023-01-28T17:04:20.904Z,77.54
2023-01-28T17:06:53.255Z,77.37
2023-01-28T17:09:24.771Z,77.62
2023-01-28T17:11:55.981Z,77.66
2023-01-28T17:14:27.949Z,77.65
2023-01-28T17:17:00.865Z,77.54
2023-01-28T17:19:34.846Z,77.64
2023-01-28T17:22:06.283Z,77.52
2023-01-28T17:24:37.977Z,77.66
2023-01-28T17:27:10.044Z,77.58
2023-01-28T17:29:43.256Z,77.69
2023-01-28T17:32:17.377Z,77.84
2023-01-28T17:34:54.152Z,77.57
2023-01-28T17:37:25.694Z,77.56
2023-01-28T17:39:56.856Z,77.58
2023-01-28T17:42:28.492Z,77.69
2023-01-28T17:45:03.178Z,77.75
2023-01-28T17:47:34.301Z,77.79
2023-01-28T17:50:05.718Z,77.86
2023-01-28T17:52:36.826Z,77.72
2023-01-28T17:55:09.325Z,77.69
2023-01-28T17:57:40.495Z,77.51
2023-01-28T18:00:12.488Z,77.62
2023-01-28T18:02:43.430Z,77.91
2023-01-28T18:05:16.532Z,77.54
2023-01-28T18:07:48.026Z,77.77
2023-01-28T18:10:19.858Z,77.87
2023-01-28T18:12:50.927Z,77.79
2023-01-28T18:15:24.017Z,77.74
2023-01-28T18:17:55.485Z,77.75
2023-01-28T18:20:26.616Z,78.02
2023-01-28T18:22:59.643Z,78.03
2023-01-28T18:25:30.468Z,78.04
2023-01-28T18:28:01.902Z,77.97
2023-01-28T18:30:33.170Z,77.77
2023-01-28T18:33:05.886Z,77.78
2023-01-28T18:35:37.699Z,77.90
2023-01-28T18:38:08.913Z,77.72
2023-01-28T18:40:39.827Z,77.89
2023-01-28T18:43:10.879Z,78.03
2023-01-28T18:45:42.464Z,77.95
2023-01-28T18:48:13.822Z,78.15
2023-01-28T18:50:50.447Z,77.99
2023-01-28T18:53:21.667Z,77.81
2023-01-28T18:55:52.711Z,77.81
2023-01-28T18:58:25.615Z,77.75
2023-01-28T19:00:56.692Z,77.69
2023-01-28T19:03:28.637Z,77.67
2023-01-28T19:05:59.559Z,77.60
2023-01-28T19:08:30.742Z,77.47
2023-01-28T19:11:01.778Z,77.24
2023-01-28T19:13:33.666Z,77.45
2023-01-28T19:16:04.805Z,77.30
2023-01-28T19:18:35.703Z,77.18
2023-01-28T19:21:07.047Z,77.52
2023-01-28T19:23:49.222Z,77.46
2023-01-28T19:26:22.502Z,77.26
2023-01-28T19:28:53.680Z,77.28
2023-01-28T19:31:25.153Z,77.24
2023-01-28T19:33:57.931Z,77.33
2023-01-28T19:36:30.177Z,77.40
2023-01-28T19:39:03.061Z,77.39
2023-01-28T19:41:35.014Z,77.41
2023-01-28T19:44:07.663Z,77.50
2023-01-28T19:46:41.261Z,77.48
2023-01-28T19:49:14.878Z,77.30
2023-01-28T19:51:47.892Z,77.43
2023-01-28T19:54:19.475Z,77.23
2023-01-28T19:56:50.557Z,77.23
2023-01-28T19:59:21.686Z,77.28
2023-01-28T20:01:53.096Z,77.35
2023-01-28T20:04:25.678Z,77.35
2023-01-28T20:06:57.278Z,77.38
2023-01-28T20:09:28.687Z,77.54
2023-01-28T20:11:59.796Z,77.66
2023-01-28T20:14:31.194Z,77.64
2023-01-28T20:17:02.287Z,77.56
2023-01-28T20:19:35.054Z,77.31
2023-01-28T20:22:06.039Z,77.34
2023-01-28T20:24:37.225Z,77.27
2023-01-28T20:27:08.437Z,77.22
2023-01-28T20:29:39.543Z,77.51
2023-01-28T20:32:18.224Z,77.46
2023-01-28T20:34:51.076Z,77.30
2023-01-28T20:37:22.062Z,77.20
2023-01-28T20:39:53.148Z,77.35
2023-01-28T20:42:24.111Z,77.40
2023-01-28T20:44:55.106Z,77.32
2023-01-28T20:47:26.614Z,77.13
2023-01-28T20:49:58.035Z,77.09
2023-01-28T20:52:30.630Z,77.23
2023-01-28T20:55:01.811Z,77.31
2023-01-28T20:57:32.761Z,77.18
2023-01-28T21:00:03.687Z,76.85
2023-01-28T21:02:35.595Z,77.29
2023-01-28T21:05:07.673Z,77.05
2023-01-28T21:07:38.827Z,77.19
2023-01-28T21:10:10.710Z,76.99
2023-01-28T21:12:41.689Z,77.05
2023-01-28T21:15:13.504Z,77.16
2023-01-28T21:17:44.596Z,77.12
2023-01-28T21:20:16.122Z,77.09
2023-01-28T21:22:47.123Z,77.09
2023-01-28T21:25:17.975Z,77.09
2023-01-28T21:27:48.959Z,77.06
2023-01-28T21:30:20.479Z,77.15
2023-01-28T21:32:51.801Z,77.19
2023-01-28T21:35:23.683Z,77.12
2023-01-28T21:37:54.503Z,77.12
2023-01-28T21:40:25.647Z,77.20
2023-01-28T21:42:57.343Z,77.33
2023-01-28T21:45:28.709Z,77.19
2023-01-28T21:48:00.301Z,76.99
2023-01-28T21:50:53.724Z,77.01
2023-01-28T21:53:25.651Z,77.04
2023-01-28T21:55:57.713Z,77.15
2023-01-28T21:58:47.731Z,76.82
2023-01-28T22:01:20.955Z,76.92
2023-01-28T22:03:53.675Z,77.08
2023-01-28T22:10:18.668Z,76.81
2023-01-28T22:12:50.635Z,77.07
2023-01-28T22:15:24.675Z,76.85
2023-01-28T22:17:56.705Z,76.95
2023-01-28T22:20:29.945Z,77.07
2023-01-28T22:23:02.630Z,76.97
2023-01-28T22:25:35.700Z,76.62
2023-01-28T22:28:07.671Z,76.84
2023-01-28T22:30:39.029Z,76.83
2023-01-28T22:33:11.794Z,76.97
2023-01-28T22:35:43.827Z,76.75
2023-01-28T22:38:16.723Z,77.01
2023-01-28T22:50:23.903Z,76.86
2023-01-28T22:52:54.807Z,77.08
2023-01-28T22:55:25.736Z,77.15
2023-01-28T22:57:56.912Z,77.06
2023-01-28T23:00:29.238Z,77.17
2023-01-28T23:03:00.681Z,77.05
2023-01-28T23:05:31.673Z,77.09
2023-01-28T23:08:10.623Z,76.86
2023-01-28T23:10:47.440Z,76.99
2023-01-28T23:13:18.598Z,77.17
2023-01-28T23:16:07.700Z,77.03
2023-01-28T23:18:58.417Z,77.43
2023-01-28T23:21:46.686Z,77.00
2023-01-28T23:24:20.986Z,77.11
2023-01-28T23:26:53.300Z,76.96
2023-01-28T23:29:25.100Z,77.23
2023-01-28T23:31:56.456Z,77.14
2023-01-28T23:34:27.379Z,77.21
2023-01-28T23:36:58.195Z,77.12
2023-01-28T23:39:29.017Z,77.08
2023-01-28T23:42:00.548Z,76.86
2023-01-28T23:44:31.312Z,76.89
2023-01-28T23:47:02.274Z,76.89
2023-01-28T23:49:32.984Z,77.07
2023-01-28T23:52:04.613Z,76.99
2023-01-28T23:54:35.464Z,76.99
2023-01-28T23:57:06.477Z,77.01
2023-01-28T23:59:38.040Z,76.79
